createdAt,value
2024-05-09T00:00:55.485Z,97.14
2024-05-09T00:03:23.763Z,96.38
2024-05-09T00:05:51.827Z,96.51
2024-05-09T00:08:19.943Z,96.20
2024-05-09T00:10:48.313Z,96.07
2024-05-09T00:13:16.412Z,95.93
2024-05-09T00:15:44.495Z,95.51
2024-05-09T00:18:12.829Z,95.44
2024-05-09T00:20:41.498Z,95.32
2024-05-09T00:23:16.656Z,94.87
2024-05-09T00:25:45.941Z,94.86
2024-05-09T00:28:14.567Z,94.82
2024-05-09T00:30:42.884Z,94.15
2024-05-09T00:33:11.882Z,93.58
2024-05-09T00:35:42.011Z,93.30
2024-05-09T00:38:11.350Z,92.88
2024-05-09T00:40:42.591Z,92.52
2024-05-09T00:43:14.476Z,91.64
2024-05-09T00:45:44.381Z,91.48
2024-05-09T00:48:17.190Z,91.03
2024-05-09T00:50:47.950Z,90.64
2024-05-09T00:53:19.426Z,90.65
2024-05-09T00:55:48.243Z,90.51
2024-05-09T00:58:21.400Z,89.26
2024-05-09T01:00:51.276Z,87.82
2024-05-09T01:03:20.355Z,87.85
2024-05-09T01:05:48.640Z,87.42
2024-05-09T01:08:17.074Z,86.41
2024-05-09T01:10:47.919Z,85.51
2024-05-09T01:13:16.564Z,85.03
2024-05-09T01:15:44.814Z,85.64
2024-05-09T01:18:14.072Z,84.81
2024-05-09T01:20:44.747Z,85.32
2024-05-09T01:23:16.071Z,84.99
2024-05-09T01:25:47.032Z,84.12
2024-05-09T01:28:16.705Z,84.15
2024-05-09T01:30:45.314Z,84.53
2024-05-09T01:33:13.607Z,84.25
2024-05-09T01:35:43.000Z,83.92
2024-05-09T01:38:14.048Z,84.02
2024-05-09T01:40:44.836Z,83.90
2024-05-09T01:43:12.900Z,83.84
2024-05-09T01:45:41.670Z,82.96
2024-05-09T01:48:11.082Z,82.65
2024-05-09T01:50:42.349Z,83.35
2024-05-09T01:53:15.503Z,83.36
2024-05-09T01:55:44.379Z,83.59
2024-05-09T01:58:12.765Z,83.89
2024-05-09T02:00:42.780Z,83.38
2024-05-09T02:03:16.079Z,83.44
2024-05-09T02:05:47.786Z,83.33
2024-05-09T02:08:19.704Z,83.99
2024-05-09T02:10:50.206Z,83.72
2024-05-09T02:13:19.420Z,82.63
2024-05-09T02:15:48.036Z,83.08
2024-05-09T02:18:16.278Z,82.59
2024-05-09T02:20:44.538Z,83.10
2024-05-09T02:23:14.138Z,83.25
2024-05-09T02:25:42.971Z,82.68
2024-05-09T02:28:10.981Z,83.07
2024-05-09T02:30:41.598Z,82.41
2024-05-09T02:33:13.389Z,82.62
2024-05-09T02:35:44.283Z,82.34
2024-05-09T02:38:13.440Z,82.79
2024-05-09T02:40:41.624Z,83.09
2024-05-09T02:43:12.993Z,83.29
2024-05-09T02:45:41.840Z,84.03
2024-05-09T02:48:14.039Z,83.74
2024-05-09T02:50:44.722Z,83.01
2024-05-09T02:53:14.201Z,83.39
2024-05-09T02:55:43.354Z,82.40
2024-05-09T02:58:12.524Z,82.58
2024-05-09T03:00:42.589Z,83.09
2024-05-09T03:03:13.906Z,82.18
2024-05-09T03:05:46.806Z,82.27
2024-05-09T03:08:15.439Z,82.40
2024-05-09T03:10:43.545Z,82.63
2024-05-09T03:13:14.650Z,82.12
2024-05-09T03:15:44.943Z,82.38
2024-05-09T03:18:39.561Z,82.19
2024-05-09T03:21:07.943Z,81.54
2024-05-09T03:23:42.317Z,81.91
2024-05-09T03:26:13.896Z,81.46
2024-05-09T03:28:45.877Z,80.28
2024-05-09T03:31:14.640Z,80.24
2024-05-09T03:33:42.968Z,80.09
2024-05-09T03:36:11.482Z,79.95
2024-05-09T03:38:42.764Z,79.68
2024-05-09T03:41:11.316Z,77.74
2024-05-09T03:43:39.254Z,77.02
2024-05-09T03:46:07.362Z,77.28
2024-05-09T03:48:36.379Z,76.59
2024-05-09T03:51:05.023Z,75.81
2024-05-09T03:53:33.041Z,76.24
2024-05-09T03:56:04.072Z,75.89
2024-05-09T03:58:32.281Z,75.40
2024-05-09T04:01:00.360Z,74.90
2024-05-09T04:03:28.788Z,74.69
2024-05-09T04:05:57.484Z,72.06
2024-05-09T04:08:25.392Z,71.97
2024-05-09T04:10:53.177Z,70.99
2024-05-09T04:13:21.110Z,71.00
2024-05-09T04:15:49.323Z,71.12
2024-05-09T04:18:18.807Z,72.80
2024-05-09T04:20:47.142Z,72.78
2024-05-09T04:23:15.310Z,72.54
2024-05-09T04:25:45.936Z,73.22
2024-05-09T04:28:14.725Z,70.54
2024-05-09T04:30:43.840Z,70.69
2024-05-09T04:33:14.014Z,70.78
2024-05-09T04:35:46.238Z,70.07
2024-05-09T04:38:15.213Z,71.35
2024-05-09T04:40:44.625Z,72.53
2024-05-09T04:43:17.633Z,71.74
2024-05-09T04:45:46.601Z,70.38
2024-05-09T04:48:14.745Z,71.08
2024-05-09T04:50:43.136Z,70.49
2024-05-09T04:53:16.624Z,70.64
2024-05-09T04:55:45.156Z,70.00
2024-05-09T04:58:13.593Z,69.20
2024-05-09T05:00:41.988Z,67.42
2024-05-09T05:03:14.995Z,67.88
2024-05-09T05:05:45.962Z,64.66
2024-05-09T05:08:17.167Z,61.79
2024-05-09T05:10:47.446Z,60.88
2024-05-09T05:13:18.368Z,60.29
2024-05-09T05:15:48.425Z,57.97
2024-05-09T05:18:17.123Z,59.88
2024-05-09T05:20:45.476Z,57.42
2024-05-09T05:23:16.285Z,57.00
2024-05-09T05:25:48.412Z,56.18
2024-05-09T05:28:18.115Z,55.22
2024-05-09T05:30:46.787Z,54.70
2024-05-09T05:33:16.346Z,55.14
2024-05-09T05:35:44.984Z,54.36
2024-05-09T05:38:13.527Z,56.32
2024-05-09T05:40:41.808Z,56.66
2024-05-09T05:43:16.545Z,56.47
2024-05-09T05:45:45.683Z,55.97
2024-05-09T05:48:17.176Z,54.07
2024-05-09T05:50:46.348Z,54.85
2024-05-09T05:53:14.776Z,58.13
2024-05-09T05:55:43.374Z,60.80
2024-05-09T05:58:15.509Z,61.84
2024-05-09T06:00:44.715Z,62.15
2024-05-09T06:03:14.469Z,60.38
2024-05-09T06:05:48.839Z,60.11
2024-05-09T06:08:17.189Z,60.29
2024-05-09T06:10:45.475Z,60.56
2024-05-09T06:13:14.591Z,61.85
2024-05-09T06:15:43.898Z,62.48
2024-05-09T06:18:12.971Z,63.77
2024-05-09T06:20:43.940Z,63.59
2024-05-09T06:23:16.233Z,60.99
2024-05-09T06:25:44.501Z,60.28
2024-05-09T06:28:12.618Z,54.82
2024-05-09T06:30:42.382Z,56.31
2024-05-09T06:33:14.712Z,54.26
2024-05-09T06:35:45.026Z,54.47
2024-05-09T06:38:13.773Z,51.69
2024-05-09T06:40:44.129Z,49.85
2024-05-09T06:43:18.126Z,52.26
2024-05-09T06:45:49.368Z,53.09
2024-05-09T06:48:22.069Z,53.42
2024-05-09T06:50:51.161Z,53.05
2024-05-09T06:53:23.688Z,54.23
2024-05-09T06:55:51.870Z,53.52
2024-05-09T06:58:19.791Z,54.57
2024-05-09T07:00:48.070Z,55.54
2024-05-09T07:03:18.254Z,55.27
2024-05-09T07:05:49.373Z,56.50
2024-05-09T07:08:17.872Z,53.86
2024-05-09T07:10:46.453Z,51.11
2024-05-09T07:13:15.663Z,50.13
2024-05-09T07:15:44.391Z,50.64
2024-05-09T07:18:18.434Z,48.19
2024-05-09T07:20:49.393Z,45.25
2024-05-09T07:23:19.021Z,43.41
2024-05-09T07:25:47.559Z,43.66
2024-05-09T07:28:19.905Z,43.84
2024-05-09T07:30:48.430Z,46.53
2024-05-09T07:33:23.076Z,45.97
2024-05-09T07:35:53.380Z,48.82
2024-05-09T07:38:21.918Z,49.22
2024-05-09T07:40:50.602Z,50.07
2024-05-09T07:43:18.800Z,47.68
2024-05-09T07:45:52.689Z,44.98
2024-05-09T07:52:39.304Z,42.11
2024-05-09T07:53:49.160Z,43.12
2024-05-09T07:56:22.808Z,42.60
2024-05-09T07:58:56.464Z,43.15
2024-05-09T08:01:28.218Z,43.92
2024-05-09T08:03:56.944Z,45.58
2024-05-09T08:06:25.892Z,46.03
2024-05-09T08:08:54.455Z,47.71
2024-05-09T08:11:23.550Z,48.99
2024-05-09T08:13:51.470Z,51.00
2024-05-09T08:16:19.921Z,47.02
2024-05-09T08:18:50.118Z,47.07
2024-05-09T08:21:19.552Z,43.72
2024-05-09T08:23:47.556Z,42.38
2024-05-09T08:26:15.633Z,40.81
2024-05-09T08:28:43.450Z,39.13
2024-05-09T08:31:12.026Z,39.49
2024-05-09T08:33:48.350Z,38.46
2024-05-09T08:36:17.061Z,41.10
2024-05-09T08:38:45.297Z,40.54
2024-05-09T08:41:18.225Z,41.14
2024-05-09T08:43:47.696Z,37.93
2024-05-09T08:46:19.241Z,38.57
2024-05-09T08:48:50.305Z,39.68
2024-05-09T08:51:18.606Z,39.17
2024-05-09T08:53:46.783Z,38.77
2024-05-09T08:56:17.195Z,39.29
2024-05-09T08:58:46.510Z,40.10
2024-05-09T09:01:15.692Z,41.72
2024-05-09T09:03:45.902Z,42.58
2024-05-09T09:06:18.415Z,43.69
2024-05-09T09:08:46.854Z,44.69
2024-05-09T09:11:15.503Z,45.00
2024-05-09T09:13:43.460Z,46.83
2024-05-09T09:16:11.629Z,43.64
2024-05-09T09:18:39.698Z,40.11
2024-05-09T09:21:11.530Z,38.64
2024-05-09T09:23:42.959Z,38.47
2024-05-09T09:26:16.778Z,37.62
2024-05-09T09:28:47.960Z,37.41
2024-05-09T09:31:20.560Z,37.87
2024-05-09T09:33:49.286Z,34.45
2024-05-09T09:36:18.716Z,34.78
2024-05-09T09:38:48.781Z,34.24
2024-05-09T09:41:20.327Z,35.50
2024-05-09T09:43:49.393Z,35.81
2024-05-09T09:46:18.714Z,33.89
2024-05-09T09:48:47.991Z,34.94
2024-05-09T09:51:16.478Z,36.23
2024-05-09T09:53:45.405Z,37.97
2024-05-09T09:56:18.250Z,38.28
2024-05-09T09:58:47.521Z,37.30
2024-05-09T10:01:15.579Z,36.44
2024-05-09T10:03:46.094Z,35.37
2024-05-09T10:06:15.219Z,35.89
2024-05-09T10:08:43.972Z,36.10
2024-05-09T10:11:12.370Z,37.06
2024-05-09T10:13:42.994Z,38.60
2024-05-09T10:16:12.305Z,39.76
2024-05-09T10:18:41.879Z,41.99
2024-05-09T10:21:17.921Z,39.65
2024-05-09T10:24:09.785Z,35.92
2024-05-09T10:26:39.260Z,36.34
2024-05-09T10:29:18.465Z,36.93
2024-05-09T10:31:48.062Z,36.15
2024-05-09T10:34:23.495Z,36.49
2024-05-09T10:36:55.375Z,36.44
2024-05-09T10:39:26.257Z,37.44
2024-05-09T10:41:53.969Z,38.80
2024-05-09T10:44:22.548Z,39.15
2024-05-09T10:46:50.931Z,40.24
2024-05-09T10:49:19.159Z,42.15
2024-05-09T10:51:48.610Z,39.71
2024-05-09T10:54:17.361Z,38.63
2024-05-09T10:56:45.374Z,37.52
2024-05-09T10:59:13.600Z,36.22
2024-05-09T11:01:41.802Z,34.84
2024-05-09T11:04:10.468Z,33.37
2024-05-09T11:06:39.680Z,33.94
2024-05-09T11:09:08.145Z,35.10
2024-05-09T11:11:36.311Z,33.52
2024-05-09T11:14:13.343Z,35.24
2024-05-09T11:16:41.561Z,34.10
2024-05-09T11:19:14.315Z,34.35
2024-05-09T11:21:42.873Z,36.66
2024-05-09T11:24:11.512Z,35.83
2024-05-09T11:26:40.218Z,35.63
2024-05-09T11:29:08.169Z,35.87
2024-05-09T11:31:48.892Z,33.79
2024-05-09T11:34:16.984Z,35.18
2024-05-09T11:36:45.417Z,34.56
2024-05-09T11:39:14.947Z,34.33
2024-05-09T11:41:43.203Z,35.78
2024-05-09T11:44:11.198Z,35.39
2024-05-09T11:46:39.072Z,35.92
2024-05-09T11:49:07.721Z,36.39
2024-05-09T11:51:36.164Z,33.18
2024-05-09T11:54:04.146Z,32.01
2024-05-09T11:56:32.386Z,33.52
2024-05-09T11:59:00.598Z,34.49
2024-05-09T12:01:28.749Z,34.34
2024-05-09T12:03:56.932Z,36.06
2024-05-09T12:06:25.312Z,35.01
2024-05-09T12:08:53.263Z,33.43
2024-05-09T12:11:21.366Z,31.24
2024-05-09T12:13:49.357Z,30.74
2024-05-09T12:16:17.270Z,29.89
2024-05-09T12:18:45.484Z,31.17
2024-05-09T12:21:17.270Z,31.14
2024-05-09T12:23:45.657Z,32.30
2024-05-09T12:26:15.989Z,33.86
2024-05-09T12:28:44.806Z,35.73
2024-05-09T12:31:12.784Z,35.93
2024-05-09T12:33:40.887Z,35.06
2024-05-09T12:36:09.129Z,33.40
2024-05-09T12:38:37.644Z,33.55
2024-05-09T12:41:05.934Z,33.40
2024-05-09T12:43:33.963Z,34.56
2024-05-09T12:46:03.647Z,35.00
2024-05-09T12:48:31.955Z,34.87
2024-05-09T12:51:00.306Z,35.88
2024-05-09T12:53:28.493Z,35.91
2024-05-09T12:56:00.200Z,35.88
2024-05-09T12:58:30.321Z,36.69
2024-05-09T13:00:58.431Z,35.91
2024-05-09T13:03:26.882Z,33.76
2024-05-09T13:05:55.364Z,34.48
2024-05-09T13:08:23.504Z,35.90
2024-05-09T13:10:51.968Z,35.95
2024-05-09T13:13:20.016Z,35.36
2024-05-09T13:15:48.556Z,36.90
2024-05-09T13:18:16.692Z,32.91
2024-05-09T13:20:45.102Z,33.13
2024-05-09T13:23:13.017Z,33.49
2024-05-09T13:25:41.545Z,32.75
2024-05-09T13:28:09.654Z,32.98
2024-05-09T13:30:40.826Z,32.42
2024-05-09T13:33:12.877Z,31.01
2024-05-09T13:35:47.198Z,31.79
2024-05-09T13:38:20.865Z,33.65
2024-05-09T13:40:49.591Z,34.61
2024-05-09T13:43:18.630Z,35.24
2024-05-09T13:45:47.759Z,36.20
2024-05-09T13:48:15.985Z,35.48
2024-05-09T13:50:44.047Z,35.18
2024-05-09T13:53:12.079Z,35.50
2024-05-09T13:55:40.576Z,35.94
2024-05-09T13:58:09.748Z,35.79
2024-05-09T14:00:46.319Z,36.60
2024-05-09T14:03:19.476Z,35.41
2024-05-09T14:05:51.156Z,35.09
2024-05-09T14:08:22.578Z,34.50
2024-05-09T14:10:52.638Z,33.57
2024-05-09T14:13:20.905Z,34.26
2024-05-09T14:15:49.609Z,33.72
2024-05-09T14:18:18.067Z,34.04
2024-05-09T14:20:46.225Z,34.57
2024-05-09T14:23:15.704Z,34.80
2024-05-09T14:25:45.469Z,35.81
2024-05-09T14:28:14.511Z,35.71
2024-05-09T14:30:43.154Z,36.77
2024-05-09T14:33:12.088Z,35.34
2024-05-09T14:35:40.314Z,36.93
2024-05-09T14:38:10.144Z,36.76
2024-05-09T14:40:42.500Z,36.01
2024-05-09T14:43:14.795Z,35.89
2024-05-09T14:45:44.122Z,36.50
2024-05-09T14:48:15.237Z,35.89
2024-05-09T14:50:44.105Z,34.93
2024-05-09T14:53:14.104Z,35.74
2024-05-09T14:55:43.698Z,35.36
2024-05-09T14:58:13.100Z,35.33
2024-05-09T15:00:46.813Z,35.75
2024-05-09T15:03:22.585Z,36.16
2024-05-09T15:05:51.602Z,36.35
2024-05-09T15:08:20.915Z,36.63
2024-05-09T15:10:50.446Z,37.37
2024-05-09T15:13:20.215Z,37.00
2024-05-09T15:15:48.850Z,37.06
2024-05-09T15:18:17.427Z,37.13
2024-05-09T15:20:45.812Z,37.25
2024-05-09T15:23:14.029Z,37.10
2024-05-09T15:25:44.398Z,36.95
2024-05-09T15:28:12.556Z,37.35
2024-05-09T15:30:42.794Z,37.50
2024-05-09T15:33:14.076Z,37.52
2024-05-09T15:35:42.216Z,37.30
2024-05-09T15:38:10.862Z,37.01
2024-05-09T15:40:40.719Z,37.46
2024-05-09T15:43:10.985Z,37.38
2024-05-09T15:45:41.601Z,37.39
2024-05-09T15:48:10.968Z,37.37
2024-05-09T15:50:41.913Z,37.16
2024-05-09T15:53:13.662Z,37.95
2024-05-09T15:55:43.350Z,37.90
2024-05-09T15:58:12.395Z,37.53
2024-05-09T16:00:44.063Z,37.56
2024-05-09T16:03:15.260Z,37.86
2024-05-09T16:05:46.657Z,38.50
2024-05-09T16:08:15.882Z,37.82
2024-05-09T16:10:46.316Z,38.58
2024-05-09T16:13:16.166Z,38.77
2024-05-09T16:15:44.900Z,38.52
2024-05-09T16:18:13.166Z,38.60
2024-05-09T16:20:43.396Z,38.61
2024-05-09T16:23:13.014Z,38.54
2024-05-09T16:25:46.446Z,38.68
2024-05-09T16:28:14.568Z,39.30
2024-05-09T16:30:43.318Z,38.96
2024-05-09T16:33:12.459Z,38.56
2024-05-09T16:35:40.649Z,38.99
2024-05-09T16:38:08.775Z,39.45
2024-05-09T16:40:40.277Z,40.30
2024-05-09T16:43:11.567Z,39.45
2024-05-09T16:45:41.234Z,39.74
2024-05-09T16:48:09.883Z,39.58
2024-05-09T16:50:39.304Z,40.00
2024-05-09T16:53:07.653Z,39.46
2024-05-09T16:55:36.588Z,38.99
2024-05-09T16:58:05.487Z,38.89
2024-05-09T17:00:40.559Z,39.28
2024-05-09T17:03:15.292Z,38.85
2024-05-09T17:05:47.366Z,39.01
2024-05-09T17:08:18.329Z,38.75
2024-05-09T17:10:49.497Z,38.99
2024-05-09T17:13:17.897Z,38.80
2024-05-09T17:15:46.027Z,39.81
2024-05-09T17:18:13.713Z,40.11
2024-05-09T17:20:43.520Z,39.76
2024-05-09T17:23:14.579Z,39.86
2024-05-09T17:25:42.408Z,40.75
2024-05-09T17:28:11.128Z,40.88
2024-05-09T17:30:40.782Z,41.27
2024-05-09T17:33:11.159Z,41.75
2024-05-09T17:35:40.001Z,42.54
2024-05-09T17:38:07.736Z,42.69
2024-05-09T17:40:37.581Z,42.60
2024-05-09T17:43:08.683Z,42.52
2024-05-09T17:45:39.227Z,43.26
2024-05-09T17:48:08.797Z,42.71
2024-05-09T17:50:37.826Z,42.63
2024-05-09T17:53:06.444Z,42.69
2024-05-09T17:55:34.840Z,43.00
2024-05-09T17:58:02.878Z,43.23
2024-05-09T18:00:37.879Z,42.97
2024-05-09T18:03:11.070Z,44.06
2024-05-09T18:05:39.966Z,44.42
2024-05-09T18:08:08.585Z,44.42
2024-05-09T18:10:39.005Z,44.97
2024-05-09T18:13:08.948Z,44.76
2024-05-09T18:15:37.602Z,45.33
2024-05-09T18:18:06.577Z,45.51
2024-05-09T18:20:41.949Z,45.81
2024-05-09T18:23:14.343Z,46.52
2024-05-09T18:25:43.194Z,46.20
2024-05-09T18:28:11.274Z,46.64
2024-05-09T18:30:39.613Z,46.68
2024-05-09T18:33:11.548Z,46.95
2024-05-09T18:35:41.931Z,47.85
2024-05-09T18:38:09.670Z,47.96
2024-05-09T18:40:38.835Z,48.08
2024-05-09T18:43:08.977Z,48.67
2024-05-09T18:45:38.216Z,47.91
2024-05-09T18:48:07.581Z,48.47
2024-05-09T18:50:39.123Z,48.74
2024-05-09T18:53:13.110Z,48.37
2024-05-09T18:55:44.689Z,48.17
2024-05-09T18:58:13.189Z,48.38
2024-05-09T19:00:43.851Z,48.34
2024-05-09T19:03:14.507Z,48.36
2024-05-09T19:05:44.322Z,48.88
2024-05-09T19:08:15.440Z,48.81
2024-05-09T19:10:43.814Z,49.53
2024-05-09T19:13:13.427Z,49.43
2024-05-09T19:15:43.365Z,49.54
2024-05-09T19:18:12.470Z,49.87
2024-05-09T19:20:40.845Z,49.86
2024-05-09T19:23:08.492Z,49.82
2024-05-09T19:25:36.539Z,50.07
2024-05-09T19:28:05.591Z,50.32
2024-05-09T19:30:39.256Z,50.47
2024-05-09T19:33:11.007Z,50.59
2024-05-09T19:35:39.565Z,50.51
2024-05-09T19:38:07.268Z,51.07
2024-05-09T19:40:35.983Z,50.95
2024-05-09T19:43:05.602Z,50.51
2024-05-09T19:45:35.214Z,51.22
2024-05-09T19:48:04.890Z,50.97
2024-05-09T19:50:40.964Z,51.33
2024-05-09T19:53:12.150Z,50.97
2024-05-09T19:55:40.419Z,51.05
2024-05-09T19:58:09.289Z,51.65
2024-05-09T20:00:40.078Z,51.81
2024-05-09T20:03:10.567Z,51.61
2024-05-09T20:05:39.386Z,51.95
2024-05-09T20:08:07.466Z,52.01
2024-05-09T20:10:36.362Z,52.21
2024-05-09T20:13:06.620Z,52.12
2024-05-09T20:15:35.726Z,52.88
2024-05-09T20:18:04.081Z,52.51
2024-05-09T20:20:38.220Z,52.59
2024-05-09T20:23:09.874Z,52.41
2024-05-09T20:25:37.705Z,52.87
2024-05-09T20:28:09.021Z,53.21
2024-05-09T20:30:37.149Z,53.23
2024-05-09T20:33:07.457Z,53.22
2024-05-09T20:35:36.620Z,53.62
2024-05-09T20:38:05.224Z,53.58
2024-05-09T20:40:36.915Z,54.04
2024-05-09T20:43:07.511Z,54.07
2024-05-09T20:45:35.629Z,54.22
2024-05-09T20:48:03.824Z,54.26
2024-05-09T20:50:38.577Z,54.50
2024-05-09T20:53:09.659Z,54.64
2024-05-09T20:55:37.302Z,54.60
2024-05-09T20:58:05.050Z,55.03
2024-05-09T21:00:40.137Z,54.76
2024-05-09T21:03:11.804Z,54.94
2024-05-09T21:05:40.553Z,55.23
2024-05-09T21:08:08.674Z,55.65
2024-05-09T21:10:37.215Z,55.31
2024-05-09T21:13:06.773Z,55.05
2024-05-09T21:15:35.968Z,55.69
2024-05-09T21:18:04.783Z,55.60
2024-05-09T21:20:34.995Z,55.90
2024-05-09T21:23:03.837Z,55.86
2024-05-09T21:25:32.021Z,55.80
2024-05-09T21:28:00.060Z,55.69
2024-05-09T21:30:37.647Z,55.90
2024-05-09T21:33:10.958Z,56.09
2024-05-09T21:35:40.319Z,55.92
2024-05-09T21:38:08.060Z,55.85
2024-05-09T21:40:36.840Z,56.15
2024-05-09T21:43:06.441Z,55.34
2024-05-09T21:45:34.878Z,55.73
2024-05-09T21:48:06.540Z,55.66
2024-05-09T21:50:40.232Z,55.71
2024-05-09T21:53:10.395Z,55.34
2024-05-09T21:55:38.300Z,55.82
2024-05-09T21:58:06.187Z,56.06
2024-05-09T22:00:38.257Z,56.13
2024-05-09T22:03:11.141Z,55.73
2024-05-09T22:05:42.617Z,55.63
2024-05-09T22:08:10.990Z,55.47
2024-05-09T22:10:38.835Z,55.84
2024-05-09T22:13:07.244Z,55.78
2024-05-09T22:15:36.253Z,56.01
2024-05-09T22:18:05.843Z,55.56
2024-05-09T22:20:37.633Z,55.16
2024-05-09T22:23:07.552Z,55.32
2024-05-09T22:25:35.767Z,54.98
2024-05-09T22:28:03.831Z,54.84
2024-05-09T22:30:36.733Z,54.98
2024-05-09T22:33:07.711Z,55.20
2024-05-09T22:35:35.707Z,54.76
2024-05-09T22:38:03.834Z,54.75
2024-05-09T22:40:42.268Z,54.99
2024-05-09T22:43:19.983Z,54.77
2024-05-09T22:45:48.474Z,54.87
2024-05-09T22:48:16.081Z,54.80
2024-05-09T22:50:43.860Z,54.21
2024-05-09T22:53:11.392Z,54.71
2024-05-09T22:55:38.855Z,53.93
2024-05-09T22:58:06.619Z,53.88
2024-05-09T23:00:34.187Z,53.51
2024-05-09T23:03:02.287Z,53.45
2024-05-09T23:05:30.239Z,52.60
2024-05-09T23:07:57.966Z,52.83
2024-05-09T23:10:32.319Z,52.85
2024-05-09T23:13:04.411Z,53.10
2024-05-09T23:15:32.035Z,53.02
2024-05-09T23:18:00.366Z,53.50
2024-05-09T23:20:36.226Z,53.17
2024-05-09T23:23:07.386Z,54.15
2024-05-09T23:25:35.275Z,54.02
2024-05-09T23:28:03.083Z,54.43
2024-05-09T23:30:37.489Z,54.30
2024-05-09T23:33:08.570Z,54.38
2024-05-09T23:35:36.397Z,53.83
2024-05-09T23:38:04.156Z,54.23
2024-05-09T23:43:02.339Z,53.50
2024-05-09T23:45:29.835Z,53.89
2024-05-09T23:47:58.103Z,53.99
2024-05-09T23:50:33.620Z,53.96
2024-05-09T23:53:04.877Z,53.79
2024-05-09T23:55:32.869Z,53.55
2024-05-09T23:58:02.160Z,53.44
